createdAt,value
2022-08-03T00:01:36.290Z,24.90
2022-08-03T00:04:04.831Z,24.80
2022-08-03T00:06:36.751Z,24.80
2022-08-03T00:09:05.655Z,24.70
2022-08-03T00:11:32.941Z,26.00
2022-08-03T00:14:00.138Z,24.80
2022-08-03T00:16:27.270Z,24.70
2022-08-03T00:18:54.287Z,24.70
2022-08-03T00:21:21.315Z,24.70
2022-08-03T00:23:52.313Z,24.60
2022-08-03T00:26:21.358Z,24.60
2022-08-03T00:28:49.512Z,24.50
2022-08-03T00:31:16.895Z,24.60
2022-08-03T00:33:59.659Z,24.50
2022-08-03T00:36:30.280Z,25.70
2022-08-03T00:38:57.287Z,24.50
2022-08-03T00:41:24.275Z,24.50
2022-08-03T00:43:51.252Z,24.40
2022-08-03T00:46:21.604Z,24.40
2022-08-03T00:48:52.468Z,24.70
2022-08-03T00:51:21.894Z,24.30
2022-08-03T00:53:49.960Z,24.30
2022-08-03T00:56:18.109Z,24.30
2022-08-03T00:58:46.593Z,24.30
2022-08-03T01:01:14.905Z,24.10
2022-08-03T01:03:42.648Z,24.20
2022-08-03T01:06:36.254Z,24.20
2022-08-03T01:09:41.675Z,24.20
2022-08-03T01:12:25.172Z,24.20
2022-08-03T01:15:15.933Z,23.90
2022-08-03T01:18:15.161Z,24.10
2022-08-03T01:20:48.787Z,24.10
2022-08-03T01:23:28.988Z,24.00
2022-08-03T01:26:02.259Z,23.90
2022-08-03T01:29:02.122Z,24.00
2022-08-03T01:32:53.242Z,24.00
2022-08-03T01:35:41.488Z,23.90
2022-08-03T01:38:24.125Z,23.90
2022-08-03T01:40:54.879Z,24.00
2022-08-03T01:44:28.126Z,23.90
2022-08-03T01:46:17.469Z,23.70
2022-08-03T01:48:46.863Z,23.70
2022-08-03T01:51:16.043Z,23.70
2022-08-03T01:53:43.342Z,23.70
2022-08-03T01:56:11.302Z,23.70
2022-08-03T01:58:40.848Z,23.70
2022-08-03T02:01:10.599Z,23.60
2022-08-03T02:04:00.031Z,23.50
2022-08-03T02:07:00.008Z,23.70
2022-08-03T02:09:21.645Z,23.60
2022-08-03T02:11:51.549Z,23.60
2022-08-03T02:14:21.360Z,23.50
2022-08-03T02:16:49.921Z,23.50
2022-08-03T02:19:18.387Z,23.50
2022-08-03T02:21:57.112Z,23.40
2022-08-03T02:24:29.758Z,24.00
2022-08-03T02:26:57.839Z,23.40
2022-08-03T02:29:39.847Z,23.40
2022-08-03T02:32:14.814Z,22.80
2022-08-03T02:34:47.876Z,22.90
2022-08-03T02:37:18.569Z,23.10
2022-08-03T02:39:47.122Z,23.30
2022-08-03T02:42:16.658Z,23.30
2022-08-03T02:44:48.812Z,23.20
2022-08-03T02:47:17.189Z,23.20
2022-08-03T02:49:50.564Z,23.20
2022-08-03T02:52:21.878Z,23.40
2022-08-03T02:54:52.730Z,24.00
2022-08-03T02:57:21.466Z,23.20
2022-08-03T02:59:49.037Z,23.00
2022-08-03T03:02:18.166Z,22.90
2022-08-03T03:05:51.131Z,23.10
2022-08-03T03:07:52.149Z,23.00
2022-08-03T03:10:23.786Z,23.00
2022-08-03T03:12:53.784Z,23.10
2022-08-03T03:15:21.475Z,22.20
2022-08-03T03:17:50.385Z,22.90
2022-08-03T03:20:29.471Z,23.00
2022-08-03T03:23:00.583Z,22.90
2022-08-03T03:25:30.971Z,22.80
2022-08-03T03:28:02.096Z,23.00
2022-08-03T03:30:30.057Z,22.80
2022-08-03T03:32:58.703Z,22.80
2022-08-03T03:35:27.724Z,22.80
2022-08-03T03:37:55.266Z,22.70
2022-08-03T03:40:22.939Z,22.70
2022-08-03T03:42:50.753Z,22.70
2022-08-03T03:45:18.930Z,22.70
2022-08-03T03:47:46.037Z,22.70
2022-08-03T03:50:15.613Z,22.50
2022-08-03T03:52:42.612Z,22.70
2022-08-03T03:55:09.713Z,22.50
2022-08-03T03:57:36.688Z,21.60
2022-08-03T04:00:05.955Z,22.00
2022-08-03T04:02:33.315Z,22.50
2022-08-03T04:05:18.970Z,22.60
2022-08-03T04:08:22.651Z,22.50
2022-08-03T04:11:29.301Z,22.30
2022-08-03T04:14:13.572Z,22.30
2022-08-03T04:16:50.764Z,22.40
2022-08-03T04:19:36.003Z,22.50
2022-08-03T04:22:10.261Z,22.40
2022-08-03T04:24:49.573Z,22.40
2022-08-03T04:27:21.899Z,22.40
2022-08-03T04:29:53.372Z,22.40
2022-08-03T04:32:21.017Z,22.40
2022-08-03T04:34:48.324Z,22.40
2022-08-03T04:37:27.263Z,22.30
2022-08-03T04:39:57.897Z,22.40
2022-08-03T04:42:25.943Z,22.10
2022-08-03T04:45:00.448Z,22.40
2022-08-03T04:47:28.751Z,22.20
2022-08-03T04:49:56.251Z,22.00
2022-08-03T04:52:23.268Z,21.70
2022-08-03T04:54:51.203Z,22.10
2022-08-03T04:57:22.378Z,22.20
2022-08-03T05:00:02.641Z,22.10
2022-08-03T05:02:32.326Z,22.20
2022-08-03T05:05:00.811Z,22.20
2022-08-03T05:07:35.560Z,22.20
2022-08-03T05:10:16.140Z,22.10
2022-08-03T05:12:45.549Z,22.30
2022-08-03T05:15:13.044Z,22.30
2022-08-03T05:17:40.594Z,22.00
2022-08-03T05:20:08.722Z,22.10
2022-08-03T05:22:35.646Z,22.00
2022-08-03T05:25:03.120Z,23.00
2022-08-03T05:27:30.397Z,22.00
2022-08-03T05:30:31.374Z,22.30
2022-08-03T05:32:44.365Z,21.80
2022-08-03T05:36:01.934Z,22.00
2022-08-03T05:37:58.528Z,21.90
2022-08-03T05:40:25.666Z,21.60
2022-08-03T05:42:54.141Z,21.70
2022-08-03T05:45:25.373Z,21.10
2022-08-03T05:47:55.226Z,20.90
2022-08-03T05:50:22.565Z,22.80
2022-08-03T05:52:49.778Z,20.80
2022-08-03T05:55:17.028Z,21.60
2022-08-03T05:57:47.549Z,20.80
2022-08-03T06:00:17.513Z,20.80
2022-08-03T06:02:46.111Z,21.40
2022-08-03T06:05:13.355Z,21.30
2022-08-03T06:07:40.380Z,21.60
2022-08-03T06:10:36.858Z,21.50
2022-08-03T06:12:55.810Z,21.50
2022-08-03T06:15:25.616Z,23.20
2022-08-03T06:17:52.833Z,20.50
2022-08-03T06:20:21.313Z,21.40
2022-08-03T06:23:00.836Z,21.40
2022-08-03T06:25:28.895Z,21.20
2022-08-03T06:27:55.863Z,21.50
2022-08-03T06:30:22.815Z,21.60
2022-08-03T06:32:52.029Z,21.30
2022-08-03T06:35:19.929Z,21.20
2022-08-03T06:37:49.848Z,21.50
2022-08-03T06:40:21.694Z,21.50
2022-08-03T06:42:51.421Z,21.20
2022-08-03T06:45:18.557Z,21.50
2022-08-03T06:47:45.570Z,21.60
2022-08-03T06:50:16.837Z,21.50
2022-08-03T06:52:45.348Z,21.40
2022-08-03T06:55:12.352Z,21.50
2022-08-03T06:57:39.494Z,21.40
2022-08-03T07:00:12.219Z,21.70
2022-08-03T07:02:42.672Z,21.70
2022-08-03T07:05:10.616Z,21.60
2022-08-03T07:07:38.099Z,21.50
2022-08-03T07:10:06.221Z,20.20
2022-08-03T07:12:34.123Z,21.70
2022-08-03T07:15:03.349Z,21.80
2022-08-03T07:17:33.051Z,21.70
2022-08-03T07:20:01.816Z,21.90
2022-08-03T07:22:28.865Z,21.40
2022-08-03T07:24:56.432Z,21.80
2022-08-03T07:27:23.967Z,21.20
2022-08-03T07:29:50.915Z,21.80
2022-08-03T07:32:18.275Z,21.90
2022-08-03T07:34:45.476Z,21.80
2022-08-03T07:37:12.487Z,21.90
2022-08-03T07:39:39.418Z,21.90
2022-08-03T07:42:06.432Z,22.40
2022-08-03T07:44:33.414Z,22.20
2022-08-03T07:47:00.553Z,22.60
2022-08-03T07:49:30.632Z,22.70
2022-08-03T07:52:16.629Z,23.20
2022-08-03T07:54:43.933Z,22.60
2022-08-03T07:57:10.940Z,22.50
2022-08-03T08:00:01.525Z,22.90
2022-08-03T08:02:27.102Z,22.90
2022-08-03T08:04:54.133Z,23.30
2022-08-03T08:07:21.042Z,24.80
2022-08-03T08:09:47.979Z,23.00
2022-08-03T08:14:45.855Z,23.30
2022-08-03T08:17:14.264Z,22.60
2022-08-03T08:19:51.196Z,23.10
2022-08-03T08:22:30.117Z,23.10
2022-08-03T08:24:59.338Z,23.10
2022-08-03T08:27:26.489Z,23.50
2022-08-03T08:29:56.339Z,24.00
2022-08-03T08:32:26.321Z,23.70
2022-08-03T08:34:54.096Z,24.00
2022-08-03T08:37:21.370Z,23.90
2022-08-03T08:39:48.496Z,24.60
2022-08-03T08:42:16.083Z,23.80
2022-08-03T08:44:43.366Z,24.00
2022-08-03T08:47:10.458Z,24.30
2022-08-03T08:49:40.395Z,23.90
2022-08-03T08:52:25.276Z,23.70
2022-08-03T08:55:00.206Z,23.70
2022-08-03T08:57:42.890Z,24.90
2022-08-03T09:00:15.431Z,24.90
2022-08-03T09:02:47.066Z,25.30
2022-08-03T09:05:22.521Z,25.70
2022-08-03T09:07:59.211Z,24.70
2022-08-03T09:10:26.143Z,24.40
2022-08-03T09:12:59.285Z,25.40
2022-08-03T09:16:22.129Z,23.40
2022-08-03T09:18:52.271Z,24.50
2022-08-03T09:21:33.643Z,25.10
2022-08-03T09:24:06.351Z,25.00
2022-08-03T09:26:37.434Z,26.00
2022-08-03T09:29:15.043Z,26.40
2022-08-03T09:31:45.587Z,25.00
2022-08-03T09:34:16.394Z,25.90
2022-08-03T09:36:46.690Z,26.30
2022-08-03T09:39:41.660Z,26.40
2022-08-03T09:42:15.596Z,26.50
2022-08-03T09:44:47.097Z,26.90
2022-08-03T09:47:17.633Z,27.10
2022-08-03T09:50:02.294Z,26.90
2022-08-03T09:52:49.990Z,26.70
2022-08-03T09:56:34.856Z,26.80
2022-08-03T09:58:12.740Z,27.10
2022-08-03T10:01:04.789Z,27.00
2022-08-03T10:03:36.241Z,27.00
2022-08-03T10:06:23.171Z,27.10
2022-08-03T10:09:17.717Z,26.90
2022-08-03T10:11:47.090Z,27.30
2022-08-03T10:14:19.616Z,26.90
2022-08-03T10:16:48.322Z,26.40
2022-08-03T10:19:16.390Z,26.40
2022-08-03T10:21:55.785Z,27.50
2022-08-03T10:24:29.813Z,27.40
2022-08-03T10:27:24.234Z,27.80
2022-08-03T10:29:56.484Z,27.70
2022-08-03T10:32:49.380Z,28.20
2022-08-03T10:35:21.424Z,26.70
2022-08-03T10:38:08.722Z,27.70
2022-08-03T10:40:48.869Z,27.10
2022-08-03T10:43:27.850Z,27.30
2022-08-03T10:45:56.833Z,25.40
2022-08-03T10:48:24.723Z,26.40
2022-08-03T10:50:52.255Z,26.80
2022-08-03T10:53:36.587Z,28.10
2022-08-03T10:56:49.894Z,28.20
2022-08-03T10:59:10.659Z,28.00
2022-08-03T11:01:59.131Z,28.10
2022-08-03T11:04:29.339Z,28.20
2022-08-03T11:07:23.358Z,28.50
2022-08-03T11:09:56.256Z,29.00
2022-08-03T11:12:29.994Z,28.30
2022-08-03T11:15:08.594Z,27.80
2022-08-03T11:17:46.548Z,29.10
2022-08-03T11:20:50.685Z,29.20
2022-08-03T11:24:04.362Z,29.30
2022-08-03T11:26:28.230Z,29.80
2022-08-03T11:29:29.233Z,29.10
2022-08-03T11:31:56.432Z,28.80
2022-08-03T11:34:24.825Z,28.50
2022-08-03T11:37:23.560Z,30.50
2022-08-03T11:39:54.595Z,30.30
2022-08-03T11:42:24.666Z,29.70
2022-08-03T11:44:54.317Z,29.20
2022-08-03T11:47:23.214Z,29.40
2022-08-03T11:49:51.815Z,29.80
2022-08-03T11:52:19.533Z,29.40
2022-08-03T11:54:56.684Z,31.00
2022-08-03T11:59:19.290Z,31.00
2022-08-03T12:00:31.341Z,30.10
2022-08-03T12:03:02.514Z,30.40
2022-08-03T12:05:52.205Z,31.10
2022-08-03T12:08:29.962Z,30.90
2022-08-03T12:11:00.159Z,31.70
2022-08-03T12:14:44.982Z,31.80
2022-08-03T12:16:24.478Z,31.30
2022-08-03T12:19:05.094Z,31.80
2022-08-03T12:21:32.861Z,32.20
2022-08-03T12:24:04.965Z,32.10
2022-08-03T12:26:58.261Z,32.00
2022-08-03T12:29:27.472Z,31.80
2022-08-03T12:31:55.887Z,32.00
2022-08-03T12:34:23.421Z,31.60
2022-08-03T12:36:56.589Z,32.30
2022-08-03T12:39:26.346Z,32.30
2022-08-03T12:41:55.917Z,32.60
2022-08-03T12:44:34.848Z,32.60
2022-08-03T12:47:04.056Z,33.20
2022-08-03T12:49:50.187Z,32.70
2022-08-03T12:52:20.477Z,33.80
2022-08-03T12:54:59.340Z,33.50
2022-08-03T12:57:26.730Z,34.10
2022-08-03T12:59:55.881Z,33.70
2022-08-03T13:02:27.818Z,33.70
2022-08-03T13:04:55.652Z,33.50
2022-08-03T13:07:23.378Z,35.20
2022-08-03T13:09:53.641Z,34.10
2022-08-03T13:12:26.878Z,34.10
2022-08-03T13:14:57.639Z,34.60
2022-08-03T13:17:25.033Z,34.50
2022-08-03T13:19:52.681Z,34.70
2022-08-03T13:22:28.966Z,33.90
2022-08-03T13:24:57.534Z,33.80
2022-08-03T13:28:03.287Z,31.30
2022-08-03T13:30:13.234Z,33.20
2022-08-03T13:32:40.687Z,33.40
2022-08-03T13:35:09.149Z,34.20
2022-08-03T13:37:37.379Z,34.00
2022-08-03T13:40:07.184Z,34.20
2022-08-03T13:42:35.618Z,34.30
2022-08-03T13:45:04.784Z,33.60
2022-08-03T13:47:32.105Z,32.60
2022-08-03T13:50:02.483Z,32.90
2022-08-03T13:52:32.413Z,33.20
2022-08-03T13:55:00.306Z,33.00
2022-08-03T13:58:05.623Z,33.50
2022-08-03T14:00:27.657Z,33.20
2022-08-03T14:03:12.828Z,34.40
2022-08-03T14:05:43.112Z,34.50
2022-08-03T14:08:10.698Z,33.60
2022-08-03T14:10:43.984Z,32.70
2022-08-03T14:13:16.837Z,33.30
2022-08-03T14:15:51.253Z,33.10
2022-08-03T14:18:28.458Z,32.50
2022-08-03T14:21:01.963Z,31.70
2022-08-03T14:23:32.979Z,32.70
2022-08-03T14:26:00.043Z,33.50
2022-08-03T14:28:27.308Z,33.60
2022-08-03T14:30:55.965Z,33.90
2022-08-03T14:33:23.590Z,33.60
2022-08-03T14:35:52.335Z,34.60
2022-08-03T14:38:20.102Z,33.60
2022-08-03T14:40:47.762Z,33.00
2022-08-03T14:43:18.084Z,33.30
2022-08-03T14:45:45.418Z,33.50
2022-08-03T14:50:32.571Z,33.70
2022-08-03T14:50:59.736Z,32.10
2022-08-03T14:53:26.794Z,33.00
2022-08-03T14:55:53.777Z,32.10
2022-08-03T14:58:28.078Z,32.10
2022-08-03T15:00:56.323Z,32.20
2022-08-03T15:03:24.862Z,33.40
2022-08-03T15:05:54.313Z,33.10
2022-08-03T15:08:23.150Z,33.50
2022-08-03T15:10:50.643Z,33.10
2022-08-03T15:13:18.360Z,33.30
2022-08-03T15:15:47.759Z,33.30
2022-08-03T15:18:14.780Z,33.20
2022-08-03T15:20:46.355Z,33.20
2022-08-03T15:23:15.096Z,33.10
2022-08-03T15:26:31.582Z,33.20
2022-08-03T15:28:31.406Z,33.20
2022-08-03T15:30:58.626Z,32.30
2022-08-03T15:33:25.752Z,34.00
2022-08-03T15:35:53.367Z,32.80
2022-08-03T15:38:25.883Z,32.90
2022-08-03T15:40:54.900Z,34.40
2022-08-03T15:43:23.682Z,33.00
2022-08-03T15:46:18.903Z,32.90
2022-08-03T15:48:38.698Z,32.30
2022-08-03T15:51:06.545Z,33.90
2022-08-03T15:53:34.489Z,32.80
2022-08-03T15:56:05.251Z,33.20
2022-08-03T15:59:11.278Z,32.70
2022-08-03T16:01:26.166Z,32.80
2022-08-03T16:03:53.154Z,33.90
2022-08-03T16:06:34.754Z,32.60
2022-08-03T16:09:23.742Z,32.40
2022-08-03T16:11:53.574Z,32.90
2022-08-03T16:14:34.424Z,32.60
2022-08-03T16:17:05.416Z,32.70
2022-08-03T16:19:32.553Z,32.60
2022-08-03T16:22:00.859Z,32.50
2022-08-03T16:24:28.385Z,32.70
2022-08-03T16:26:56.585Z,32.50
2022-08-03T16:29:24.167Z,32.20
2022-08-03T16:31:52.563Z,33.00
2022-08-03T16:34:20.693Z,32.50
2022-08-03T16:36:47.877Z,32.40
2022-08-03T16:39:15.052Z,32.50
2022-08-03T16:41:53.532Z,32.30
2022-08-03T16:44:30.441Z,32.30
2022-08-03T16:46:59.237Z,31.40
2022-08-03T16:49:54.392Z,32.40
2022-08-03T16:52:13.531Z,32.10
2022-08-03T16:54:44.394Z,32.30
2022-08-03T16:57:29.978Z,32.10
2022-08-03T17:00:09.040Z,31.80
2022-08-03T17:02:37.059Z,31.50
2022-08-03T17:05:05.114Z,31.60
2022-08-03T17:07:32.157Z,31.70
2022-08-03T17:10:01.016Z,31.60
2022-08-03T17:12:28.373Z,32.00
2022-08-03T17:14:57.315Z,31.70
2022-08-03T17:17:47.534Z,31.50
2022-08-03T17:20:21.677Z,31.70
2022-08-03T17:23:33.831Z,31.60
2022-08-03T17:26:02.081Z,31.60
2022-08-03T17:28:51.896Z,31.60
2022-08-03T17:31:31.212Z,31.70
2022-08-03T17:34:01.907Z,31.80
2022-08-03T17:36:54.101Z,31.60
2022-08-03T17:39:30.882Z,31.50
2022-08-03T17:42:30.698Z,32.20
2022-08-03T17:44:57.909Z,31.20
2022-08-03T17:47:29.291Z,31.10
2022-08-03T17:50:25.378Z,31.60
2022-08-03T17:53:07.415Z,31.20
2022-08-03T17:55:52.006Z,31.00
2022-08-03T17:59:08.246Z,30.40
2022-08-03T18:02:30.442Z,30.40
2022-08-03T18:05:16.558Z,30.50
2022-08-03T18:07:59.573Z,30.50
2022-08-03T18:10:35.368Z,30.20
2022-08-03T18:13:19.471Z,30.30
2022-08-03T18:16:04.690Z,31.40
2022-08-03T18:18:44.231Z,30.00
2022-08-03T18:21:17.068Z,29.60
2022-08-03T18:23:50.963Z,31.50
2022-08-03T18:26:19.138Z,29.70
2022-08-03T18:28:50.658Z,29.60
2022-08-03T18:31:33.191Z,29.50
2022-08-03T18:34:18.022Z,29.30
2022-08-03T18:36:56.485Z,29.40
2022-08-03T18:39:23.565Z,29.40
2022-08-03T18:41:51.986Z,30.10
2022-08-03T18:47:51.673Z,29.70
2022-08-03T18:50:36.051Z,30.00
2022-08-03T18:53:20.028Z,30.00
2022-08-03T18:56:49.559Z,28.30
2022-08-03T18:59:54.899Z,28.80
2022-08-03T19:02:41.930Z,29.80
2022-08-03T19:05:23.540Z,29.40
2022-08-03T19:08:22.916Z,29.70
2022-08-03T19:11:01.002Z,31.10
2022-08-03T19:13:38.271Z,29.80
2022-08-03T19:16:29.756Z,29.90
2022-08-03T19:19:00.116Z,29.90
2022-08-03T19:21:29.913Z,29.80
2022-08-03T19:24:06.604Z,29.60
2022-08-03T19:26:41.291Z,31.40
2022-08-03T19:29:15.064Z,29.70
2022-08-03T19:31:58.950Z,29.90
2022-08-03T19:34:29.230Z,30.50
2022-08-03T19:36:59.807Z,29.80
2022-08-03T19:39:27.018Z,30.50
2022-08-03T19:42:06.269Z,29.50
2022-08-03T19:44:41.136Z,31.30
2022-08-03T19:47:17.320Z,29.60
2022-08-03T19:50:06.200Z,29.50
2022-08-03T19:52:38.792Z,29.50
2022-08-03T19:55:12.122Z,29.50
2022-08-03T19:57:45.888Z,29.40
2022-08-03T20:00:14.232Z,29.40
2022-08-03T20:02:42.942Z,29.40
2022-08-03T20:08:02.217Z,29.30
2022-08-03T20:10:30.310Z,29.30
2022-08-03T20:12:58.127Z,29.30
2022-08-03T20:15:31.559Z,29.30
2022-08-03T20:17:59.988Z,29.20
2022-08-03T20:20:33.990Z,29.20
2022-08-03T20:23:07.265Z,29.20
2022-08-03T20:25:48.567Z,29.20
2022-08-03T20:28:31.913Z,29.20
2022-08-03T20:30:59.994Z,29.10
2022-08-03T20:33:48.802Z,29.10
2022-08-03T20:36:18.228Z,28.90
2022-08-03T20:38:51.006Z,29.00
2022-08-03T20:41:19.950Z,28.90
2022-08-03T20:43:49.425Z,28.90
2022-08-03T20:46:35.392Z,28.90
2022-08-03T20:49:06.868Z,28.80
2022-08-03T20:51:49.910Z,28.60
2022-08-03T20:54:29.769Z,28.60
2022-08-03T20:57:04.354Z,27.20
2022-08-03T20:59:50.043Z,28.70
2022-08-03T21:02:28.806Z,28.80
2022-08-03T21:05:10.257Z,30.10
2022-08-03T21:08:06.189Z,28.60
2022-08-03T21:10:37.980Z,28.50
2022-08-03T21:13:05.489Z,29.50
2022-08-03T21:13:09.879Z,29.30
2022-08-03T21:13:17.007Z,28.40
2022-08-03T21:16:12.867Z,28.50
2022-08-03T21:18:46.260Z,29.90
2022-08-03T21:21:17.884Z,28.50
2022-08-03T21:26:56.895Z,28.40
2022-08-03T21:29:28.687Z,28.30
2022-08-03T21:31:59.299Z,29.50
2022-08-03T21:34:27.660Z,28.30
2022-08-03T21:36:54.722Z,28.30
2022-08-03T21:39:22.015Z,28.30
2022-08-03T21:41:49.283Z,28.30
2022-08-03T21:44:18.293Z,28.30
2022-08-03T21:46:57.256Z,28.20
2022-08-03T21:50:02.621Z,28.20
2022-08-03T21:52:15.003Z,28.20
2022-08-03T21:54:44.349Z,28.20
2022-08-03T21:57:22.237Z,28.10
2022-08-03T22:00:14.617Z,27.90
2022-08-03T22:02:54.435Z,28.00
2022-08-03T22:05:28.836Z,28.00
2022-08-03T22:08:10.854Z,27.90
2022-08-03T22:10:38.402Z,27.90
2022-08-03T22:13:05.578Z,27.90
2022-08-03T22:15:32.995Z,27.90
2022-08-03T22:18:03.445Z,27.90
2022-08-03T22:20:30.845Z,27.80
2022-08-03T22:23:03.704Z,26.20
2022-08-03T22:25:34.182Z,27.80
2022-08-03T22:28:07.201Z,27.80
2022-08-03T22:30:34.749Z,27.70
2022-08-03T22:33:04.923Z,27.70
2022-08-03T22:35:46.463Z,27.70
2022-08-03T22:38:16.903Z,27.60
2022-08-03T22:40:46.774Z,27.50
2022-08-03T22:43:14.135Z,27.60
2022-08-03T22:46:09.398Z,27.50
2022-08-03T22:49:10.966Z,27.50
2022-08-03T22:51:40.848Z,27.40
2022-08-03T22:54:11.908Z,27.50
2022-08-03T22:56:39.420Z,27.40
2022-08-03T22:59:40.698Z,27.40
2022-08-03T23:02:00.814Z,27.40
2022-08-03T23:04:32.590Z,26.20
2022-08-03T23:07:06.946Z,27.30
2022-08-03T23:09:34.420Z,28.60
2022-08-03T23:12:05.949Z,27.40
2022-08-03T23:14:38.646Z,27.20
2022-08-03T23:17:06.407Z,27.10
2022-08-03T23:19:41.715Z,27.20
2022-08-03T23:22:29.482Z,27.00
2022-08-03T23:24:59.027Z,27.20
2022-08-03T23:27:27.897Z,27.00
2022-08-03T23:29:57.599Z,27.00
2022-08-03T23:32:27.362Z,27.10
2022-08-03T23:35:19.465Z,27.40
2022-08-03T23:38:04.812Z,27.90
2022-08-03T23:40:37.137Z,28.80
2022-08-03T23:43:05.224Z,26.80
2022-08-03T23:45:36.012Z,26.80
2022-08-03T23:48:02.961Z,26.90
2022-08-03T23:50:47.139Z,26.90
2022-08-03T23:54:01.879Z,26.80
2022-08-03T23:57:01.553Z,26.80
2022-08-03T23:59:43.370Z,26.60
